Barfleur — FNIE — position and weather

sailwx.info

Track history (hours):
 
Tides and Currents Weather Stations Pressure Air Temp Water Temp Dewpoint Dewpoint Depression Visibility Wind Speed Wind Dir Waves Ship Positions

Barfleur

Operator: Brittany Ferries

Last reported at 2017-Nov-24 09:30 UTC. Time now 2017-Nov-24 09:34 UTC.
Position N 50°29' W 001°51'.

Length 158 m; draft 5 m.

Type: Passenger vessel. MMSI: 227289000.

Date/timePositionNaut miles runAvg speedWind from/ knotsBaromVisibWave heightAir tempDewpointWater temp
2017-Nov-24 09:30N 50°29' W 001°51'917.8
2017-Nov-24 09:00N 50°38' W 001°54'510.1
2017-Nov-24 08:30N 50°42' W 001°58'1 2.1
2017-Nov-24 08:00N 50°42' W 001°59'0 0.0
2017-Nov-24 07:30N 50°42' W 001°59'0 0.0
2017-Nov-24 07:00N 50°42' W 001°59'0 0.0
2017-Nov-24 06:30N 50°42' W 001°59'0 0.0
2017-Nov-24 06:00N 50°42' W 001°59'0 0.0
2017-Nov-24 05:30N 50°42' W 001°59'0 0.0
2017-Nov-24 05:00N 50°42' W 001°59'0 0.0
2017-Nov-24 04:30N 50°42' W 001°59'0 0.0
2017-Nov-24 04:00N 50°42' W 001°59'0 0.0
2017-Nov-24 03:30N 50°42' W 001°59'0 0.0
2017-Nov-24 03:00N 50°42' W 001°59'0 0.0
2017-Nov-24 02:30N 50°42' W 001°59'0 0.0
2017-Nov-24 02:00N 50°42' W 001°59'0 0.0
2017-Nov-24 01:30N 50°42' W 001°59'0 0.0
2017-Nov-24 01:00N 50°42' W 001°59'0 0.0
2017-Nov-24 00:30N 50°42' W 001°59'0 0.0
2017-Nov-24 00:00N 50°42' W 001°59'0 0.0
2017-Nov-23 23:30N 50°42' W 001°59'0 0.0
2017-Nov-23 23:00N 50°42' W 001°59'0 0.0
2017-Nov-23 22:30N 50°42' W 001°59'0 0.0
2017-Nov-23 22:00N 50°42' W 001°59'2 3.5
2017-Nov-23 21:30N 50°41' W 001°57'5 9.8
2017-Nov-23 21:01N 50°37' W 001°54'917.5
2017-Nov-23 20:31N 50°29' W 001°50'2417.6
2017-Nov-23 19:09N 50°05' W 001°45'217.8
2017-Nov-23 19:00N 50°02' W 001°44'917.5
2017-Nov-23 18:30N 49°54' W 001°42'917.8
2017-Nov-23 18:00N 49°45' W 001°40'612.7
2017-Nov-23 17:30N 49°39' W 001°37'0 0.6
2017-Nov-23 17:01N 49°39' W 001°37'0 0.0
2017-Nov-23 16:31N 49°39' W 001°37'0 0.0
2017-Nov-23 16:01N 49°39' W 001°37'0 0.0
2017-Nov-23 15:31N 49°39' W 001°37'0 0.0
2017-Nov-23 15:01N 49°39' W 001°37'0 0.0
2017-Nov-23 14:31N 49°39' W 001°37'0 0.0
2017-Nov-23 14:00N 49°39' W 001°37'0 0.0
2017-Nov-23 13:31N 49°39' W 001°37'0 0.0
2017-Nov-23 13:01N 49°39' W 001°37'0 0.4
2017-Nov-23 12:30N 49°39' W 001°37'612.7
2017-Nov-23 12:00N 49°45' W 001°40'917.9
2017-Nov-23 11:31N 49°54' W 001°40'917.4
2017-Nov-23 11:01N 50°03' W 001°41'917.1
2017-Nov-23 10:30N 50°11' W 001°44'1717.2
2017-Nov-23 09:30N 50°28' W 001°51'816.5
2017-Nov-23 09:01N 50°36' W 001°54'612.4
2017-Nov-23 08:30N 50°42' W 001°57'2 3.4
2017-Nov-23 08:00N 50°42' W 001°59'0 0.0
2017-Nov-23 07:30N 50°42' W 001°59'0 0.0
2017-Nov-23 07:00N 50°42' W 001°59'1 3.0
2017-Nov-23 06:30N 50°42' W 001°57'611.8
2017-Nov-23 06:00N 50°37' W 001°53'917.0
2017-Nov-23 05:30N 50°28' W 001°51'1217.1
2017-Nov-23 04:48N 50°16' W 001°50'517.1
2017-Nov-23 04:31N 50°11' W 001°50'816.4
2017-Nov-23 04:00N 50°03' W 001°52'816.3
2017-Nov-23 03:31N 49°55' W 001°53'816.1
2017-Nov-23 03:01N 49°47' W 001°51'713.1
2017-Nov-23 02:30N 49°45' W 001°41'1 2.7
2017-Nov-23 02:00N 49°44' W 001°40'2 4.5
2017-Nov-23 01:30N 49°45' W 001°37'3 5.7
2017-Nov-23 01:00N 49°47' W 001°35'1 2.7
2017-Nov-23 00:30N 49°46' W 001°37'1 3.0
2017-Nov-23 00:00N 49°45' W 001°39'2 3.2
2017-Nov-22 23:30N 49°45' W 001°41'2 3.2
2017-Nov-22 23:00N 49°44' W 001°43'2 3.1
2017-Nov-22 22:30N 49°43' W 001°45'1 1.4
2017-Nov-22 22:00N 49°43' W 001°45'5 9.4
2017-Nov-22 21:30N 49°40' W 001°38'2 3.5
2017-Nov-22 21:00N 49°39' W 001°37'0 0.0
2017-Nov-22 20:30N 49°39' W 001°37'0 0.0
2017-Nov-22 20:00N 49°39' W 001°37'0 0.0
2017-Nov-22 19:30N 49°39' W 001°37'  
2017-Nov-20 00:30N 50°42' W 001°59'0 0.0
2017-Nov-20 00:00N 50°42' W 001°59'0 0.0
2017-Nov-19 23:30N 50°42' W 001°59'0 0.0
2017-Nov-19 23:00N 50°42' W 001°59'0 0.0
2017-Nov-19 22:30N 50°42' W 001°59'0 0.0
2017-Nov-19 22:00N 50°42' W 001°59'0 0.2
2017-Nov-19 21:30N 50°42' W 001°59'5 9.4
2017-Nov-19 21:01N 50°39' W 001°55'918.1
2017-Nov-19 20:31N 50°30' W 001°50'2918.1
2017-Nov-19 18:53N 50°01' W 001°46'717.8
2017-Nov-19 18:30N 49°54' W 001°44'917.5
2017-Nov-19 18:00N 49°46' W 001°41'713.9
2017-Nov-19 17:30N 49°39' W 001°37'0 1.0
2017-Nov-19 17:01N 49°39' W 001°37'0 0.0
2017-Nov-19 16:30N 49°39' W 001°37'0 0.0
2017-Nov-19 16:00N 49°39' W 001°37'0 0.0
2017-Nov-19 15:31N 49°39' W 001°37'0 0.0
2017-Nov-19 15:00N 49°39' W 001°37'0 0.0
2017-Nov-19 14:30N 49°39' W 001°37'0 0.0
2017-Nov-19 14:00N 49°39' W 001°37'0 0.0
2017-Nov-19 13:30N 49°39' W 001°37'0 0.0
2017-Nov-19 13:01N 49°39' W 001°37'1 1.2
2017-Nov-19 12:30N 49°39' W 001°37'611.4
2017-Nov-19 12:00N 49°45' W 001°41'918.0
2017-Nov-19 11:30N 49°53' W 001°43'917.9
2017-Nov-19 11:01N 50°02' W 001°46'917.4
2017-Nov-19 10:30N 50°11' W 001°47'1717.2
2017-Nov-19 09:32N 50°27' W 001°51'118.2
2017-Nov-19 09:29N 50°28' W 001°51'917.8
2017-Nov-19 09:00N 50°37' W 001°54'612.2
2017-Nov-19 08:30N 50°42' W 001°58'1 2.2
2017-Nov-19 08:00N 50°42' W 001°59'0 0.0
2017-Nov-19 07:30N 50°42' W 001°59'0 0.0
2017-Nov-19 07:00N 50°42' W 001°59'0 0.0
2017-Nov-19 06:30N 50°42' W 001°59'0 0.0
2017-Nov-19 06:00N 50°42' W 001°59'0 0.0
2017-Nov-19 05:30N 50°42' W 001°59'0 0.0
2017-Nov-19 05:00N 50°42' W 001°59'0 0.0
2017-Nov-19 04:30N 50°42' W 001°59'0 0.0
2017-Nov-19 04:00N 50°42' W 001°59'0 0.0
2017-Nov-19 03:30N 50°42' W 001°59'0 0.0
2017-Nov-19 03:00N 50°42' W 001°59'0 0.0
2017-Nov-19 02:30N 50°42' W 001°59'0 0.0
2017-Nov-19 02:00N 50°42' W 001°59'0 0.0
2017-Nov-19 01:30N 50°42' W 001°59'0 0.0
2017-Nov-19 01:00N 50°42' W 001°59'0 0.0
2017-Nov-19 00:30N 50°42' W 001°59'0 0.0
2017-Nov-19 00:00N 50°42' W 001°59'0 0.0
2017-Nov-18 23:30N 50°42' W 001°59'0 0.0
2017-Nov-18 23:00N 50°42' W 001°59'0 0.0
2017-Nov-18 22:30N 50°42' W 001°59'0 0.0
2017-Nov-18 22:00N 50°42' W 001°59'1 2.3
2017-Nov-18 21:30N 50°42' W 001°58'612.3
2017-Nov-18 21:00N 50°37' W 001°53'816.5
2017-Nov-18 20:30N 50°29' W 001°48'2217.0
2017-Nov-18 19:13N 50°08' W 001°43'417.1
2017-Nov-18 18:58N 50°03' W 001°42'817.3
2017-Nov-18 18:30N 49°55' W 001°41'917.2
2017-Nov-18 18:00N 49°47' W 001°40'714.5
2017-Nov-18 17:31N 49°40' W 001°37'1 1.9
2017-Nov-18 17:01N 49°39' W 001°37'0 0.0
2017-Nov-18 16:30N 49°39' W 001°37'0 0.0
2017-Nov-18 16:00N 49°39' W 001°37'0 0.0
2017-Nov-18 15:30N 49°39' W 001°37'0 0.0
2017-Nov-18 15:00N 49°39' W 001°37'0 0.0
2017-Nov-18 14:30N 49°39' W 001°37'0 0.0
2017-Nov-18 14:00N 49°39' W 001°37'0 0.0
2017-Nov-18 13:30N 49°39' W 001°37'0 0.0
2017-Nov-18 13:00N 49°39' W 001°37'0 0.7
2017-Nov-18 12:30N 49°39' W 001°37'612.8
2017-Nov-18 12:00N 49°45' W 001°41'917.2
2017-Nov-18 11:30N 49°53' W 001°43'816.6
2017-Nov-18 11:01N 50°02' W 001°44'816.6
2017-Nov-18 10:30N 50°10' W 001°44'916.9
2017-Nov-18 10:00N 50°18' W 001°46'1016.9
2017-Nov-18 09:24N 50°28' W 001°50'718.1
2017-Nov-18 09:00N 50°35' W 001°52'713.9
2017-Nov-18 08:30N 50°41' W 001°57'2 3.5
2017-Nov-18 08:00N 50°42' W 001°59'0 0.0
2017-Nov-18 07:30N 50°42' W 001°59'0 0.0
2017-Nov-18 07:00N 50°42' W 001°59'0 0.0
2017-Nov-18 06:30N 50°42' W 001°59'0 0.0
2017-Nov-18 06:00N 50°42' W 001°59'0 0.0
2017-Nov-18 05:30N 50°42' W 001°59'0 0.0
2017-Nov-18 05:00N 50°42' W 001°59'0 0.0
2017-Nov-18 04:30N 50°42' W 001°59'0 0.0
2017-Nov-18 04:00N 50°42' W 001°59'0 0.0
2017-Nov-18 03:30N 50°42' W 001°59'0 0.0
2017-Nov-18 03:00N 50°42' W 001°59'0 0.0
2017-Nov-18 02:30N 50°42' W 001°59'0 0.0
2017-Nov-18 02:00N 50°42' W 001°59'0 0.0
2017-Nov-18 01:30N 50°42' W 001°59'0 0.0
2017-Nov-18 01:00N 50°42' W 001°59'0 0.0
2017-Nov-18 00:30N 50°42' W 001°59'0 0.0
2017-Nov-18 00:00N 50°42' W 001°59'0 0.0
2017-Nov-17 23:30N 50°42' W 001°59'0 0.0
2017-Nov-17 23:00N 50°42' W 001°59'0 0.0
2017-Nov-17 22:30N 50°42' W 001°59'0 0.0
2017-Nov-17 22:00N 50°42' W 001°59'2 3.7
2017-Nov-17 21:30N 50°41' W 001°57'713.2
2017-Nov-17 21:00N 50°35' W 001°53'918.0
2017-Nov-17 20:31N 50°26' W 001°50'2417.5
2017-Nov-17 19:09N 50°03' W 001°44'217.3
2017-Nov-17 19:01N 50°01' W 001°43'917.4
2017-Nov-17 18:30N 49°52' W 001°42'816.9
2017-Nov-17 18:00N 49°44' W 001°40'510.4
2017-Nov-17 17:31N 49°39' W 001°37'0 0.1
2017-Nov-17 17:00N 49°39' W 001°37'0 0.0
2017-Nov-17 16:31N 49°39' W 001°37'0 0.0
2017-Nov-17 16:01N 49°39' W 001°37'0 0.0
2017-Nov-17 15:31N 49°39' W 001°37'0 0.0
2017-Nov-17 15:00N 49°39' W 001°37'0 0.0
2017-Nov-17 14:31N 49°39' W 001°37'0 0.0
2017-Nov-17 14:01N 49°39' W 001°37'0 0.0
2017-Nov-17 13:31N 49°39' W 001°37'0 0.0
2017-Nov-17 13:01N 49°39' W 001°37'0 0.5
2017-Nov-17 12:30N 49°39' W 001°37'612.1
2017-Nov-17 12:00N 49°45' W 001°41'816.4
2017-Nov-17 11:30N 49°53' W 001°42'816.5
2017-Nov-17 11:00N 50°01' W 001°43'816.7
2017-Nov-17 10:31N 50°09' W 001°46'916.3
2017-Nov-17 09:59N 50°18' W 001°48'1217.5
2017-Nov-17 09:20N 50°29' W 001°51'618.3
2017-Nov-17 09:01N 50°35' W 001°53'714.8
2017-Nov-17 08:30N 50°42' W 001°57'2 3.5
2017-Nov-17 08:00N 50°42' W 001°59'0 0.0
2017-Nov-17 07:31N 50°42' W 001°59'0 0.0
2017-Nov-17 07:00N 50°42' W 001°59'0 0.0
2017-Nov-17 06:31N 50°42' W 001°59'0 0.0
2017-Nov-17 06:01N 50°42' W 001°59'0 0.0
2017-Nov-17 05:30N 50°42' W 001°59'0 0.0
2017-Nov-17 05:00N 50°42' W 001°59'0 0.0
2017-Nov-17 04:30N 50°42' W 001°59'0 0.0
2017-Nov-17 04:00N 50°42' W 001°59'0 0.0
2017-Nov-17 03:30N 50°42' W 001°59'0 0.0
2017-Nov-17 03:00N 50°42' W 001°59'0 0.0
2017-Nov-17 02:30N 50°42' W 001°59'0 0.0
2017-Nov-17 02:00N 50°42' W 001°59'0 0.0
2017-Nov-17 01:30N 50°42' W 001°59'0 0.0
2017-Nov-17 01:00N 50°42' W 001°59'0 0.0
2017-Nov-17 00:30N 50°42' W 001°59'0 0.0
2017-Nov-17 00:00N 50°42' W 001°59'0 0.0
2017-Nov-16 23:30N 50°42' W 001°59'0 0.0
2017-Nov-16 23:00N 50°42' W 001°59'1 1.4
2017-Nov-16 22:30N 50°42' W 001°58'510.7
2017-Nov-16 22:00N 50°38' W 001°54'917.5
2017-Nov-16 21:30N 50°29' W 001°50'2417.3
2017-Nov-16 20:07N 50°05' W 001°44'217.7
2017-Nov-16 20:00N 50°04' W 001°43'917.5
2017-Nov-16 19:31N 49°55' W 001°42'917.2
2017-Nov-16 19:01N 49°46' W 001°40'714.7
2017-Nov-16 18:30N 49°39' W 001°37'1 1.2
2017-Nov-16 18:01N 49°39' W 001°37'0 0.0
2017-Nov-16 17:31N 49°39' W 001°37'0 0.0
2017-Nov-16 17:01N 49°39' W 001°37'0 0.0
2017-Nov-16 16:30N 49°39' W 001°37'0 0.0
2017-Nov-16 16:00N 49°39' W 001°37'0 0.0
2017-Nov-16 15:31N 49°39' W 001°37'0 0.0
2017-Nov-16 15:00N 49°39' W 001°37'0 0.0
2017-Nov-16 14:30N 49°39' W 001°37'0 0.0
2017-Nov-16 14:00N 49°39' W 001°37'0 0.0
2017-Nov-16 13:31N 49°39' W 001°37'0 0.0
2017-Nov-16 13:00N 49°39' W 001°37'0 0.0
2017-Nov-16 12:30N 49°39' W 001°37'0 0.0
2017-Nov-16 12:01N 49°39' W 001°37'2 4.2
2017-Nov-16 11:30N 49°40' W 001°39'816.4
2017-Nov-16 11:00N 49°48' W 001°42'918.2
2017-Nov-16 10:30N 49°57' W 001°42'918.2
2017-Nov-16 10:00N 50°06' W 001°45'918.3
2017-Nov-16 09:30N 50°15' W 001°49'1318.4
2017-Nov-16 08:48N 50°28' W 001°53'517.9
2017-Nov-16 08:30N 50°33' W 001°53'815.5
2017-Nov-16 08:01N 50°41' W 001°56'3 5.2
2017-Nov-16 07:30N 50°42' W 001°59'0 0.0
2017-Nov-16 07:00N 50°42' W 001°59'0 0.0
2017-Nov-16 06:30N 50°42' W 001°59'2 3.3
2017-Nov-16 06:00N 50°42' W 001°57'713.7
2017-Nov-16 05:30N 50°35' W 001°54'815.9
2017-Nov-16 05:00N 50°27' W 001°51'1814.0
2017-Nov-16 03:44N 50°10' W 001°44'314.7
2017-Nov-16 03:30N 50°07' W 001°45'814.5
2017-Nov-16 02:59N 49°59' W 001°45'612.8
2017-Nov-16 02:30N 49°53' W 001°44'5 9.2
2017-Nov-16 02:00N 49°49' W 001°45'4 7.4
2017-Nov-16 01:30N 49°46' W 001°49'0 0.8
2017-Nov-16 01:00N 49°46' W 001°48'1 2.8
2017-Nov-16 00:30N 49°45' W 001°46'2 3.1
2017-Nov-16 00:00N 49°45' W 001°44'1 2.9
2017-Nov-15 23:30N 49°44' W 001°42'1 2.3
2017-Nov-15 23:00N 49°44' W 001°40'1 1.9
2017-Nov-15 22:30N 49°43' W 001°39'1 1.4
2017-Nov-15 22:00N 49°43' W 001°38'3 6.4
2017-Nov-15 21:30N 49°40' W 001°38'2 3.4
2017-Nov-15 21:00N 49°39' W 001°37'0 0.0
2017-Nov-15 20:30N 49°39' W 001°37'0 0.0
2017-Nov-15 20:00N 49°39' W 001°37'0 0.0
2017-Nov-15 19:30N 49°39' W 001°37'0 0.0
2017-Nov-15 19:00N 49°39' W 001°37'0 0.0
2017-Nov-15 18:30N 49°39' W 001°37'0 0.0
2017-Nov-15 18:00N 49°39' W 001°37'0 0.0
2017-Nov-15 17:30N 49°39' W 001°37'0 0.0
2017-Nov-15 17:00N 49°39' W 001°37'0 0.0
2017-Nov-15 16:30N 49°39' W 001°37'0 0.0
2017-Nov-15 16:00N 49°39' W 001°37'0 0.0
2017-Nov-15 15:30N 49°39' W 001°37'0 0.0
2017-Nov-15 15:01N 49°39' W 001°37'0 0.0
2017-Nov-15 14:30N 49°39' W 001°37'0 0.0
2017-Nov-15 14:00N 49°39' W 001°37'0 0.0
2017-Nov-15 13:30N 49°39' W 001°37'0 0.0
2017-Nov-15 13:00N 49°39' W 001°37'1 1.1
2017-Nov-15 12:31N 49°39' W 001°37'714.2
2017-Nov-15 12:01N 49°46' W 001°41'917.8
2017-Nov-15 11:30N 49°55' W 001°42'918.2
2017-Nov-15 11:00N 50°04' W 001°43'918.1
2017-Nov-15 10:30N 50°13' W 001°45'1718.2
2017-Nov-15 09:34N 50°30' W 001°51'118.3
2017-Nov-15 09:30N 50°31' W 001°51'917.9
2017-Nov-15 09:00N 50°39' W 001°55'4 8.3
2017-Nov-15 08:30N 50°42' W 001°59'0 0.0
2017-Nov-15 08:00N 50°42' W 001°59'0 0.0
2017-Nov-15 07:30N 50°42' W 001°59'0 0.0
2017-Nov-15 07:00N 50°42' W 001°59'1 1.5
2017-Nov-15 06:30N 50°42' W 001°58'611.6
2017-Nov-15 06:01N 50°37' W 001°54'918.2
2017-Nov-15 05:30N 50°28' W 001°52'2314.4
2017-Nov-15 03:54N 50°05' W 001°46'614.6
2017-Nov-15 03:30N 49°60' W 001°46'714.6
2017-Nov-15 03:00N 49°52' W 001°46'714.5
2017-Nov-15 02:30N 49°45' W 001°46'2 3.7
2017-Nov-15 02:00N 49°43' W 001°46'0 0.4
2017-Nov-15 01:30N 49°43' W 001°46'0 0.5
2017-Nov-15 01:00N 49°43' W 001°46'0 1.0
2017-Nov-15 00:30N 49°43' W 001°45'1 1.3
2017-Nov-15 00:01N 49°43' W 001°44'1 1.5
2017-Nov-14 23:31N 49°43' W 001°43'1 1.6
2017-Nov-14 23:00N 49°43' W 001°42'1 1.7
2017-Nov-14 22:31N 49°43' W 001°40'1 1.5
2017-Nov-14 22:00N 49°43' W 001°39'3 5.8
2017-Nov-14 21:30N 49°40' W 001°38'2 3.5
2017-Nov-14 21:00N 49°39' W 001°37'0 0.0
2017-Nov-14 20:31N 49°39' W 001°37'0 0.0
2017-Nov-14 20:00N 49°39' W 001°37'0 0.0
2017-Nov-14 19:30N 49°39' W 001°37'0 0.0
2017-Nov-14 19:01N 49°39' W 001°37'0 0.0
2017-Nov-14 18:30N 49°39' W 001°37'0 0.0
2017-Nov-14 18:00N 49°39' W 001°37'0 0.0
2017-Nov-14 17:30N 49°39' W 001°37'0 0.0
2017-Nov-14 17:00N 49°39' W 001°37'0 0.0
2017-Nov-14 16:30N 49°39' W 001°37'0 0.0
2017-Nov-14 16:01N 49°39' W 001°37'0 0.0
2017-Nov-14 15:30N 49°39' W 001°37'0 0.0
2017-Nov-14 15:00N 49°39' W 001°37'0 0.0
2017-Nov-14 14:30N 49°39' W 001°37'0 0.0
2017-Nov-14 14:00N 49°39' W 001°37'0 0.0
2017-Nov-14 13:30N 49°39' W 001°37'0 0.0
2017-Nov-14 13:00N 49°39' W 001°37'0 0.2
2017-Nov-14 12:30N 49°39' W 001°37'613.0
2017-Nov-14 12:00N 49°45' W 001°41'816.4
2017-Nov-14 11:30N 49°53' W 001°44'815.6
2017-Nov-14 11:00N 50°01' W 001°45'918.1
2017-Nov-14 10:31N 50°09' W 001°47'  
Track history (hours):
 
Tides and Currents Weather Stations Pressure Air Temp Water Temp Dewpoint Dewpoint Depression Visibility Wind Speed Wind Dir Waves Ship Positions

Barfleur

Operator: Brittany Ferries

Last reported at 2017-Nov-24 09:30 UTC. Time now 2017-Nov-24 09:34 UTC.
Position N 50°29' W 001°51'.

Length 158 m; draft 5 m.

Type: Passenger vessel. MMSI: 227289000.

Date/timePositionNaut miles runAvg speedWind from/ knotsBaromVisibWave heightAir tempDewpointWater temp
2017-Nov-24 09:30N 50°29' W 001°51'917.8
2017-Nov-24 09:00N 50°38' W 001°54'510.1
2017-Nov-24 08:30N 50°42' W 001°58'1 2.1
2017-Nov-24 08:00N 50°42' W 001°59'0 0.0
2017-Nov-24 07:30N 50°42' W 001°59'0 0.0
2017-Nov-24 07:00N 50°42' W 001°59'0 0.0
2017-Nov-24 06:30N 50°42' W 001°59'0 0.0
2017-Nov-24 06:00N 50°42' W 001°59'0 0.0
2017-Nov-24 05:30N 50°42' W 001°59'0 0.0
2017-Nov-24 05:00N 50°42' W 001°59'0 0.0
2017-Nov-24 04:30N 50°42' W 001°59'0 0.0
2017-Nov-24 04:00N 50°42' W 001°59'0 0.0
2017-Nov-24 03:30N 50°42' W 001°59'0 0.0
2017-Nov-24 03:00N 50°42' W 001°59'0 0.0
2017-Nov-24 02:30N 50°42' W 001°59'0 0.0
2017-Nov-24 02:00N 50°42' W 001°59'0 0.0
2017-Nov-24 01:30N 50°42' W 001°59'0 0.0
2017-Nov-24 01:00N 50°42' W 001°59'0 0.0
2017-Nov-24 00:30N 50°42' W 001°59'0 0.0
2017-Nov-24 00:00N 50°42' W 001°59'0 0.0
2017-Nov-23 23:30N 50°42' W 001°59'0 0.0
2017-Nov-23 23:00N 50°42' W 001°59'0 0.0
2017-Nov-23 22:30N 50°42' W 001°59'0 0.0
2017-Nov-23 22:00N 50°42' W 001°59'2 3.5
2017-Nov-23 21:30N 50°41' W 001°57'5 9.8
2017-Nov-23 21:01N 50°37' W 001°54'917.5
2017-Nov-23 20:31N 50°29' W 001°50'2417.6
2017-Nov-23 19:09N 50°05' W 001°45'217.8
2017-Nov-23 19:00N 50°02' W 001°44'917.5
2017-Nov-23 18:30N 49°54' W 001°42'917.8
2017-Nov-23 18:00N 49°45' W 001°40'612.7
2017-Nov-23 17:30N 49°39' W 001°37'0 0.6
2017-Nov-23 17:01N 49°39' W 001°37'0 0.0
2017-Nov-23 16:31N 49°39' W 001°37'0 0.0
2017-Nov-23 16:01N 49°39' W 001°37'0 0.0
2017-Nov-23 15:31N 49°39' W 001°37'0 0.0
2017-Nov-23 15:01N 49°39' W 001°37'0 0.0
2017-Nov-23 14:31N 49°39' W 001°37'0 0.0
2017-Nov-23 14:00N 49°39' W 001°37'0 0.0
2017-Nov-23 13:31N 49°39' W 001°37'0 0.0
2017-Nov-23 13:01N 49°39' W 001°37'0 0.4
2017-Nov-23 12:30N 49°39' W 001°37'612.7
2017-Nov-23 12:00N 49°45' W 001°40'917.9
2017-Nov-23 11:31N 49°54' W 001°40'917.4
2017-Nov-23 11:01N 50°03' W 001°41'917.1
2017-Nov-23 10:30N 50°11' W 001°44'1717.2
2017-Nov-23 09:30N 50°28' W 001°51'816.5
2017-Nov-23 09:01N 50°36' W 001°54'612.4
2017-Nov-23 08:30N 50°42' W 001°57'2 3.4
2017-Nov-23 08:00N 50°42' W 001°59'0 0.0
2017-Nov-23 07:30N 50°42' W 001°59'0 0.0
2017-Nov-23 07:00N 50°42' W 001°59'1 3.0
2017-Nov-23 06:30N 50°42' W 001°57'611.8
2017-Nov-23 06:00N 50°37' W 001°53'917.0
2017-Nov-23 05:30N 50°28' W 001°51'1217.1
2017-Nov-23 04:48N 50°16' W 001°50'517.1
2017-Nov-23 04:31N 50°11' W 001°50'816.4
2017-Nov-23 04:00N 50°03' W 001°52'816.3
2017-Nov-23 03:31N 49°55' W 001°53'816.1
2017-Nov-23 03:01N 49°47' W 001°51'713.1
2017-Nov-23 02:30N 49°45' W 001°41'1 2.7
2017-Nov-23 02:00N 49°44' W 001°40'2 4.5
2017-Nov-23 01:30N 49°45' W 001°37'3 5.7
2017-Nov-23 01:00N 49°47' W 001°35'1 2.7
2017-Nov-23 00:30N 49°46' W 001°37'1 3.0
2017-Nov-23 00:00N 49°45' W 001°39'2 3.2
2017-Nov-22 23:30N 49°45' W 001°41'2 3.2
2017-Nov-22 23:00N 49°44' W 001°43'2 3.1
2017-Nov-22 22:30N 49°43' W 001°45'1 1.4
2017-Nov-22 22:00N 49°43' W 001°45'5 9.4
2017-Nov-22 21:30N 49°40' W 001°38'2 3.5
2017-Nov-22 21:00N 49°39' W 001°37'0 0.0
2017-Nov-22 20:30N 49°39' W 001°37'0 0.0
2017-Nov-22 20:00N 49°39' W 001°37'0 0.0
2017-Nov-22 19:30N 49°39' W 001°37'  
2017-Nov-20 00:30N 50°42' W 001°59'0 0.0
2017-Nov-20 00:00N 50°42' W 001°59'0 0.0
2017-Nov-19 23:30N 50°42' W 001°59'0 0.0
2017-Nov-19 23:00N 50°42' W 001°59'0 0.0
2017-Nov-19 22:30N 50°42' W 001°59'0 0.0
2017-Nov-19 22:00N 50°42' W 001°59'0 0.2
2017-Nov-19 21:30N 50°42' W 001°59'5 9.4
2017-Nov-19 21:01N 50°39' W 001°55'918.1
2017-Nov-19 20:31N 50°30' W 001°50'2918.1
2017-Nov-19 18:53N 50°01' W 001°46'717.8
2017-Nov-19 18:30N 49°54' W 001°44'917.5
2017-Nov-19 18:00N 49°46' W 001°41'713.9
2017-Nov-19 17:30N 49°39' W 001°37'0 1.0
2017-Nov-19 17:01N 49°39' W 001°37'0 0.0
2017-Nov-19 16:30N 49°39' W 001°37'0 0.0
2017-Nov-19 16:00N 49°39' W 001°37'0 0.0
2017-Nov-19 15:31N 49°39' W 001°37'0 0.0
2017-Nov-19 15:00N 49°39' W 001°37'0 0.0
2017-Nov-19 14:30N 49°39' W 001°37'0 0.0
2017-Nov-19 14:00N 49°39' W 001°37'0 0.0
2017-Nov-19 13:30N 49°39' W 001°37'0 0.0
2017-Nov-19 13:01N 49°39' W 001°37'1 1.2
2017-Nov-19 12:30N 49°39' W 001°37'611.4
2017-Nov-19 12:00N 49°45' W 001°41'918.0
2017-Nov-19 11:30N 49°53' W 001°43'917.9
2017-Nov-19 11:01N 50°02' W 001°46'917.4
2017-Nov-19 10:30N 50°11' W 001°47'1717.2
2017-Nov-19 09:32N 50°27' W 001°51'118.2
2017-Nov-19 09:29N 50°28' W 001°51'917.8
2017-Nov-19 09:00N 50°37' W 001°54'612.2
2017-Nov-19 08:30N 50°42' W 001°58'1 2.2
2017-Nov-19 08:00N 50°42' W 001°59'0 0.0
2017-Nov-19 07:30N 50°42' W 001°59'0 0.0
2017-Nov-19 07:00N 50°42' W 001°59'0 0.0
2017-Nov-19 06:30N 50°42' W 001°59'0 0.0
2017-Nov-19 06:00N 50°42' W 001°59'0 0.0
2017-Nov-19 05:30N 50°42' W 001°59'0 0.0
2017-Nov-19 05:00N 50°42' W 001°59'0 0.0
2017-Nov-19 04:30N 50°42' W 001°59'0 0.0
2017-Nov-19 04:00N 50°42' W 001°59'0 0.0
2017-Nov-19 03:30N 50°42' W 001°59'0 0.0
2017-Nov-19 03:00N 50°42' W 001°59'0 0.0
2017-Nov-19 02:30N 50°42' W 001°59'0 0.0
2017-Nov-19 02:00N 50°42' W 001°59'0 0.0
2017-Nov-19 01:30N 50°42' W 001°59'0 0.0
2017-Nov-19 01:00N 50°42' W 001°59'0 0.0
2017-Nov-19 00:30N 50°42' W 001°59'0 0.0
2017-Nov-19 00:00N 50°42' W 001°59'0 0.0
2017-Nov-18 23:30N 50°42' W 001°59'0 0.0
2017-Nov-18 23:00N 50°42' W 001°59'0 0.0
2017-Nov-18 22:30N 50°42' W 001°59'0 0.0
2017-Nov-18 22:00N 50°42' W 001°59'1 2.3
2017-Nov-18 21:30N 50°42' W 001°58'612.3
2017-Nov-18 21:00N 50°37' W 001°53'816.5
2017-Nov-18 20:30N 50°29' W 001°48'2217.0
2017-Nov-18 19:13N 50°08' W 001°43'417.1
2017-Nov-18 18:58N 50°03' W 001°42'817.3
2017-Nov-18 18:30N 49°55' W 001°41'917.2
2017-Nov-18 18:00N 49°47' W 001°40'714.5
2017-Nov-18 17:31N 49°40' W 001°37'1 1.9
2017-Nov-18 17:01N 49°39' W 001°37'0 0.0
2017-Nov-18 16:30N 49°39' W 001°37'0 0.0
2017-Nov-18 16:00N 49°39' W 001°37'0 0.0
2017-Nov-18 15:30N 49°39' W 001°37'0 0.0
2017-Nov-18 15:00N 49°39' W 001°37'0 0.0
2017-Nov-18 14:30N 49°39' W 001°37'0 0.0
2017-Nov-18 14:00N 49°39' W 001°37'0 0.0
2017-Nov-18 13:30N 49°39' W 001°37'0 0.0
2017-Nov-18 13:00N 49°39' W 001°37'0 0.7
2017-Nov-18 12:30N 49°39' W 001°37'612.8
2017-Nov-18 12:00N 49°45' W 001°41'917.2
2017-Nov-18 11:30N 49°53' W 001°43'816.6
2017-Nov-18 11:01N 50°02' W 001°44'816.6
2017-Nov-18 10:30N 50°10' W 001°44'916.9
2017-Nov-18 10:00N 50°18' W 001°46'1016.9
2017-Nov-18 09:24N 50°28' W 001°50'718.1
2017-Nov-18 09:00N 50°35' W 001°52'713.9
2017-Nov-18 08:30N 50°41' W 001°57'2 3.5
2017-Nov-18 08:00N 50°42' W 001°59'0 0.0
2017-Nov-18 07:30N 50°42' W 001°59'0 0.0
2017-Nov-18 07:00N 50°42' W 001°59'0 0.0
2017-Nov-18 06:30N 50°42' W 001°59'0 0.0
2017-Nov-18 06:00N 50°42' W 001°59'0 0.0
2017-Nov-18 05:30N 50°42' W 001°59'0 0.0
2017-Nov-18 05:00N 50°42' W 001°59'0 0.0
2017-Nov-18 04:30N 50°42' W 001°59'0 0.0
2017-Nov-18 04:00N 50°42' W 001°59'0 0.0
2017-Nov-18 03:30N 50°42' W 001°59'0 0.0
2017-Nov-18 03:00N 50°42' W 001°59'0 0.0
2017-Nov-18 02:30N 50°42' W 001°59'0 0.0
2017-Nov-18 02:00N 50°42' W 001°59'0 0.0
2017-Nov-18 01:30N 50°42' W 001°59'0 0.0
2017-Nov-18 01:00N 50°42' W 001°59'0 0.0
2017-Nov-18 00:30N 50°42' W 001°59'0 0.0
2017-Nov-18 00:00N 50°42' W 001°59'0 0.0
2017-Nov-17 23:30N 50°42' W 001°59'0 0.0
2017-Nov-17 23:00N 50°42' W 001°59'0 0.0
2017-Nov-17 22:30N 50°42' W 001°59'0 0.0
2017-Nov-17 22:00N 50°42' W 001°59'2 3.7
2017-Nov-17 21:30N 50°41' W 001°57'713.2
2017-Nov-17 21:00N 50°35' W 001°53'918.0
2017-Nov-17 20:31N 50°26' W 001°50'2417.5
2017-Nov-17 19:09N 50°03' W 001°44'217.3
2017-Nov-17 19:01N 50°01' W 001°43'917.4
2017-Nov-17 18:30N 49°52' W 001°42'816.9
2017-Nov-17 18:00N 49°44' W 001°40'510.4
2017-Nov-17 17:31N 49°39' W 001°37'0 0.1
2017-Nov-17 17:00N 49°39' W 001°37'0 0.0
2017-Nov-17 16:31N 49°39' W 001°37'0 0.0
2017-Nov-17 16:01N 49°39' W 001°37'0 0.0
2017-Nov-17 15:31N 49°39' W 001°37'0 0.0
2017-Nov-17 15:00N 49°39' W 001°37'0 0.0
2017-Nov-17 14:31N 49°39' W 001°37'0 0.0
2017-Nov-17 14:01N 49°39' W 001°37'0 0.0
2017-Nov-17 13:31N 49°39' W 001°37'0 0.0
2017-Nov-17 13:01N 49°39' W 001°37'0 0.5
2017-Nov-17 12:30N 49°39' W 001°37'612.1
2017-Nov-17 12:00N 49°45' W 001°41'816.4
2017-Nov-17 11:30N 49°53' W 001°42'816.5
2017-Nov-17 11:00N 50°01' W 001°43'816.7
2017-Nov-17 10:31N 50°09' W 001°46'916.3
2017-Nov-17 09:59N 50°18' W 001°48'1217.5
2017-Nov-17 09:20N 50°29' W 001°51'618.3
2017-Nov-17 09:01N 50°35' W 001°53'714.8
2017-Nov-17 08:30N 50°42' W 001°57'2 3.5
2017-Nov-17 08:00N 50°42' W 001°59'0 0.0
2017-Nov-17 07:31N 50°42' W 001°59'0 0.0
2017-Nov-17 07:00N 50°42' W 001°59'0 0.0
2017-Nov-17 06:31N 50°42' W 001°59'0 0.0
2017-Nov-17 06:01N 50°42' W 001°59'0 0.0
2017-Nov-17 05:30N 50°42' W 001°59'0 0.0
2017-Nov-17 05:00N 50°42' W 001°59'0 0.0
2017-Nov-17 04:30N 50°42' W 001°59'0 0.0
2017-Nov-17 04:00N 50°42' W 001°59'0 0.0
2017-Nov-17 03:30N 50°42' W 001°59'0 0.0
2017-Nov-17 03:00N 50°42' W 001°59'0 0.0
2017-Nov-17 02:30N 50°42' W 001°59'0 0.0
2017-Nov-17 02:00N 50°42' W 001°59'0 0.0
2017-Nov-17 01:30N 50°42' W 001°59'0 0.0
2017-Nov-17 01:00N 50°42' W 001°59'0 0.0
2017-Nov-17 00:30N 50°42' W 001°59'0 0.0
2017-Nov-17 00:00N 50°42' W 001°59'0 0.0
2017-Nov-16 23:30N 50°42' W 001°59'0 0.0
2017-Nov-16 23:00N 50°42' W 001°59'1 1.4
2017-Nov-16 22:30N 50°42' W 001°58'510.7
2017-Nov-16 22:00N 50°38' W 001°54'917.5
2017-Nov-16 21:30N 50°29' W 001°50'2417.3
2017-Nov-16 20:07N 50°05' W 001°44'217.7
2017-Nov-16 20:00N 50°04' W 001°43'917.5
2017-Nov-16 19:31N 49°55' W 001°42'917.2
2017-Nov-16 19:01N 49°46' W 001°40'714.7
2017-Nov-16 18:30N 49°39' W 001°37'1 1.2
2017-Nov-16 18:01N 49°39' W 001°37'0 0.0
2017-Nov-16 17:31N 49°39' W 001°37'0 0.0
2017-Nov-16 17:01N 49°39' W 001°37'0 0.0
2017-Nov-16 16:30N 49°39' W 001°37'0 0.0
2017-Nov-16 16:00N 49°39' W 001°37'0 0.0
2017-Nov-16 15:31N 49°39' W 001°37'0 0.0
2017-Nov-16 15:00N 49°39' W 001°37'0 0.0
2017-Nov-16 14:30N 49°39' W 001°37'0 0.0
2017-Nov-16 14:00N 49°39' W 001°37'0 0.0
2017-Nov-16 13:31N 49°39' W 001°37'0 0.0
2017-Nov-16 13:00N 49°39' W 001°37'0 0.0
2017-Nov-16 12:30N 49°39' W 001°37'0 0.0
2017-Nov-16 12:01N 49°39' W 001°37'2 4.2
2017-Nov-16 11:30N 49°40' W 001°39'816.4
2017-Nov-16 11:00N 49°48' W 001°42'918.2
2017-Nov-16 10:30N 49°57' W 001°42'918.2
2017-Nov-16 10:00N 50°06' W 001°45'918.3
2017-Nov-16 09:30N 50°15' W 001°49'1318.4
2017-Nov-16 08:48N 50°28' W 001°53'517.9
2017-Nov-16 08:30N 50°33' W 001°53'815.5
2017-Nov-16 08:01N 50°41' W 001°56'3 5.2
2017-Nov-16 07:30N 50°42' W 001°59'0 0.0
2017-Nov-16 07:00N 50°42' W 001°59'0 0.0
2017-Nov-16 06:30N 50°42' W 001°59'2 3.3
2017-Nov-16 06:00N 50°42' W 001°57'713.7
2017-Nov-16 05:30N 50°35' W 001°54'815.9
2017-Nov-16 05:00N 50°27' W 001°51'1814.0
2017-Nov-16 03:44N 50°10' W 001°44'314.7
2017-Nov-16 03:30N 50°07' W 001°45'814.5
2017-Nov-16 02:59N 49°59' W 001°45'612.8
2017-Nov-16 02:30N 49°53' W 001°44'5 9.2
2017-Nov-16 02:00N 49°49' W 001°45'4 7.4
2017-Nov-16 01:30N 49°46' W 001°49'0 0.8
2017-Nov-16 01:00N 49°46' W 001°48'1 2.8
2017-Nov-16 00:30N 49°45' W 001°46'2 3.1
2017-Nov-16 00:00N 49°45' W 001°44'1 2.9
2017-Nov-15 23:30N 49°44' W 001°42'1 2.3
2017-Nov-15 23:00N 49°44' W 001°40'1 1.9
2017-Nov-15 22:30N 49°43' W 001°39'1 1.4
2017-Nov-15 22:00N 49°43' W 001°38'3 6.4
2017-Nov-15 21:30N 49°40' W 001°38'2 3.4
2017-Nov-15 21:00N 49°39' W 001°37'0 0.0
2017-Nov-15 20:30N 49°39' W 001°37'0 0.0
2017-Nov-15 20:00N 49°39' W 001°37'0 0.0
2017-Nov-15 19:30N 49°39' W 001°37'0 0.0
2017-Nov-15 19:00N 49°39' W 001°37'0 0.0
2017-Nov-15 18:30N 49°39' W 001°37'0 0.0
2017-Nov-15 18:00N 49°39' W 001°37'0 0.0
2017-Nov-15 17:30N 49°39' W 001°37'0 0.0
2017-Nov-15 17:00N 49°39' W 001°37'0 0.0
2017-Nov-15 16:30N 49°39' W 001°37'0 0.0
2017-Nov-15 16:00N 49°39' W 001°37'0 0.0
2017-Nov-15 15:30N 49°39' W 001°37'0 0.0
2017-Nov-15 15:01N 49°39' W 001°37'0 0.0
2017-Nov-15 14:30N 49°39' W 001°37'0 0.0
2017-Nov-15 14:00N 49°39' W 001°37'0 0.0
2017-Nov-15 13:30N 49°39' W 001°37'0 0.0
2017-Nov-15 13:00N 49°39' W 001°37'1 1.1
2017-Nov-15 12:31N 49°39' W 001°37'714.2
2017-Nov-15 12:01N 49°46' W 001°41'917.8
2017-Nov-15 11:30N 49°55' W 001°42'918.2
2017-Nov-15 11:00N 50°04' W 001°43'918.1
2017-Nov-15 10:30N 50°13' W 001°45'1718.2
2017-Nov-15 09:34N 50°30' W 001°51'118.3
2017-Nov-15 09:30N 50°31' W 001°51'917.9
2017-Nov-15 09:00N 50°39' W 001°55'4 8.3
2017-Nov-15 08:30N 50°42' W 001°59'0 0.0
2017-Nov-15 08:00N 50°42' W 001°59'0 0.0
2017-Nov-15 07:30N 50°42' W 001°59'0 0.0
2017-Nov-15 07:00N 50°42' W 001°59'1 1.5
2017-Nov-15 06:30N 50°42' W 001°58'611.6
2017-Nov-15 06:01N 50°37' W 001°54'918.2
2017-Nov-15 05:30N 50°28' W 001°52'2314.4
2017-Nov-15 03:54N 50°05' W 001°46'614.6
2017-Nov-15 03:30N 49°60' W 001°46'714.6
2017-Nov-15 03:00N 49°52' W 001°46'714.5
2017-Nov-15 02:30N 49°45' W 001°46'2 3.7
2017-Nov-15 02:00N 49°43' W 001°46'0 0.4
2017-Nov-15 01:30N 49°43' W 001°46'0 0.5
2017-Nov-15 01:00N 49°43' W 001°46'0 1.0
2017-Nov-15 00:30N 49°43' W 001°45'1 1.3
2017-Nov-15 00:01N 49°43' W 001°44'1 1.5
2017-Nov-14 23:31N 49°43' W 001°43'1 1.6
2017-Nov-14 23:00N 49°43' W 001°42'1 1.7
2017-Nov-14 22:31N 49°43' W 001°40'1 1.5
2017-Nov-14 22:00N 49°43' W 001°39'3 5.8
2017-Nov-14 21:30N 49°40' W 001°38'2 3.5
2017-Nov-14 21:00N 49°39' W 001°37'0 0.0
2017-Nov-14 20:31N 49°39' W 001°37'0 0.0
2017-Nov-14 20:00N 49°39' W 001°37'0 0.0
2017-Nov-14 19:30N 49°39' W 001°37'0 0.0
2017-Nov-14 19:01N 49°39' W 001°37'0 0.0
2017-Nov-14 18:30N 49°39' W 001°37'0 0.0
2017-Nov-14 18:00N 49°39' W 001°37'0 0.0
2017-Nov-14 17:30N 49°39' W 001°37'0 0.0
2017-Nov-14 17:00N 49°39' W 001°37'0 0.0
2017-Nov-14 16:30N 49°39' W 001°37'0 0.0
2017-Nov-14 16:01N 49°39' W 001°37'0 0.0
2017-Nov-14 15:30N 49°39' W 001°37'0 0.0
2017-Nov-14 15:00N 49°39' W 001°37'0 0.0
2017-Nov-14 14:30N 49°39' W 001°37'0 0.0
2017-Nov-14 14:00N 49°39' W 001°37'0 0.0
2017-Nov-14 13:30N 49°39' W 001°37'0 0.0
2017-Nov-14 13:00N 49°39' W 001°37'0 0.2
2017-Nov-14 12:30N 49°39' W 001°37'613.0
2017-Nov-14 12:00N 49°45' W 001°41'816.4
2017-Nov-14 11:30N 49°53' W 001°44'815.6
2017-Nov-14 11:00N 50°01' W 001°45'918.1
2017-Nov-14 10:31N 50°09' W 001°47'  

Dump ship's entire track history